createdAt,value
2023-02-27T00:00:17.055Z,4.78
2023-02-27T00:03:04.133Z,5.93
2023-02-27T00:05:31.773Z,4.80
2023-02-27T00:07:58.861Z,5.35
2023-02-27T00:10:26.239Z,5.78
2023-02-27T00:12:53.345Z,6.05
2023-02-27T00:15:20.926Z,4.30
2023-02-27T00:17:48.122Z,5.13
2023-02-27T00:20:18.082Z,5.32
2023-02-27T00:22:46.117Z,5.22
2023-02-27T00:25:13.872Z,4.78
2023-02-27T00:27:41.541Z,6.45
2023-02-27T00:30:11.570Z,5.35
2023-02-27T00:35:08.401Z,8.10
2023-02-27T00:37:36.138Z,3.00
2023-02-27T00:40:05.431Z,2.95
2023-02-27T00:42:33.055Z,2.45
2023-02-27T00:45:00.480Z,1.90
2023-02-27T00:47:27.776Z,3.70
2023-02-27T00:49:55.215Z,2.47
2023-02-27T00:52:22.386Z,3.33
2023-02-27T00:54:49.776Z,4.63
2023-02-27T00:57:16.967Z,3.90
2023-02-27T00:59:44.993Z,3.85
2023-02-27T01:02:13.855Z,4.28
2023-02-27T01:04:41.449Z,2.75
2023-02-27T01:07:09.232Z,2.97
2023-02-27T01:09:37.129Z,3.22
2023-02-27T01:12:04.594Z,5.00
2023-02-27T01:14:32.204Z,3.55
2023-02-27T01:16:59.331Z,2.33
2023-02-27T01:19:26.928Z,2.70
2023-02-27T01:21:54.033Z,3.15
2023-02-27T01:24:22.004Z,3.00
2023-02-27T01:26:49.714Z,1.27
2023-02-27T01:29:17.134Z,1.98
2023-02-27T01:31:45.041Z,2.20
2023-02-27T01:34:12.570Z,1.98
2023-02-27T01:36:41.452Z,5.43
2023-02-27T01:39:09.430Z,3.50
2023-02-27T01:41:36.765Z,3.30
2023-02-27T01:44:07.638Z,4.78
2023-02-27T01:46:37.769Z,1.83
2023-02-27T01:49:11.362Z,1.38
2023-02-27T01:51:45.037Z,2.92
2023-02-27T01:54:17.403Z,1.60
2023-02-27T01:56:44.917Z,1.67
2023-02-27T01:59:15.583Z,1.80
2023-02-27T02:01:43.114Z,1.92
2023-02-27T02:04:15.905Z,2.45
2023-02-27T02:06:47.584Z,1.20
2023-02-27T02:09:17.707Z,3.33
2023-02-27T02:11:45.832Z,2.17
2023-02-27T02:14:13.186Z,1.98
2023-02-27T02:17:05.696Z,4.47
2023-02-27T02:19:55.334Z,4.65
2023-02-27T02:22:55.625Z,2.35
2023-02-27T02:25:44.912Z,3.43
2023-02-27T02:28:47.036Z,2.22
2023-02-27T02:31:20.776Z,3.15
2023-02-27T02:33:59.973Z,2.95
2023-02-27T02:36:49.024Z,3.35
2023-02-27T02:39:45.146Z,3.72
2023-02-27T02:42:22.397Z,1.90
2023-02-27T02:45:06.336Z,2.85
2023-02-27T02:47:56.080Z,3.13
2023-02-27T02:50:33.245Z,4.32
2023-02-27T02:53:26.723Z,1.95
2023-02-27T02:56:06.355Z,3.40
2023-02-27T02:58:36.672Z,2.33
2023-02-27T03:01:10.236Z,3.08
2023-02-27T03:03:47.412Z,1.08
2023-02-27T03:06:21.321Z,1.15
2023-02-27T03:08:54.201Z,2.72
2023-02-27T03:11:26.441Z,2.25
2023-02-27T03:14:06.841Z,3.88
2023-02-27T03:16:56.030Z,1.83
2023-02-27T03:19:33.602Z,3.00
2023-02-27T03:22:08.956Z,2.38
2023-02-27T03:24:52.302Z,5.18
2023-02-27T03:27:22.600Z,2.63
2023-02-27T03:29:55.382Z,2.72
2023-02-27T03:32:24.934Z,2.25
2023-02-27T03:34:52.494Z,2.42
2023-02-27T03:37:26.532Z,4.15
2023-02-27T03:40:35.100Z,1.38
2023-02-27T03:43:16.629Z,1.80
2023-02-27T03:46:14.623Z,3.28
2023-02-27T03:48:44.629Z,1.83
2023-02-27T03:51:14.703Z,2.95
2023-02-27T03:54:00.237Z,2.75
2023-02-27T03:56:41.297Z,28.92
2023-02-27T03:59:09.069Z,4.03
2023-02-27T04:01:41.299Z,10.05
2023-02-27T04:04:13.150Z,7.63
2023-02-27T04:07:24.685Z,3.97
2023-02-27T04:10:10.315Z,10.50
2023-02-27T04:12:58.797Z,10.85
2023-02-27T04:16:11.971Z,7.57
2023-02-27T04:18:48.045Z,23.58
2023-02-27T04:21:35.367Z,11.70
2023-02-27T04:24:31.048Z,26.92
2023-02-27T04:27:18.605Z,34.25
2023-02-27T04:29:54.461Z,25.55
2023-02-27T04:32:38.001Z,15.27
2023-02-27T04:35:31.973Z,21.80
2023-02-27T04:38:28.402Z,23.58
2023-02-27T04:41:26.030Z,21.02
2023-02-27T04:43:55.157Z,27.05
2023-02-27T04:46:27.389Z,21.48
2023-02-27T04:49:09.261Z,21.10
2023-02-27T04:51:44.406Z,15.63
2023-02-27T04:54:16.228Z,20.50
2023-02-27T04:56:57.624Z,23.10
2023-02-27T04:59:32.789Z,17.00
2023-02-27T05:02:07.892Z,8.27
2023-02-27T05:04:38.181Z,11.82
2023-02-27T05:07:10.615Z,7.30
2023-02-27T05:09:41.028Z,18.67
2023-02-27T05:12:17.209Z,10.05
2023-02-27T05:14:52.388Z,10.10
2023-02-27T05:17:51.686Z,9.80
2023-02-27T05:20:19.251Z,10.55
2023-02-27T05:23:00.705Z,11.32
2023-02-27T05:25:30.557Z,5.85
2023-02-27T05:28:10.603Z,6.43
2023-02-27T05:33:39.989Z,18.73
2023-02-27T05:36:16.045Z,31.13
2023-02-27T05:38:52.298Z,16.05
2023-02-27T05:41:34.815Z,18.70
2023-02-27T05:44:13.934Z,27.40
2023-02-27T05:46:52.846Z,18.75
2023-02-27T05:49:26.186Z,24.02
2023-02-27T05:51:57.340Z,12.93
2023-02-27T05:54:28.012Z,13.18
2023-02-27T05:56:59.156Z,20.70
2023-02-27T05:59:50.127Z,19.92
2023-02-27T06:02:17.417Z,11.52
2023-02-27T06:04:45.477Z,12.30
2023-02-27T06:07:14.844Z,33.42
2023-02-27T06:09:44.554Z,17.17
2023-02-27T06:12:11.589Z,22.85
2023-02-27T06:14:39.093Z,9.20
2023-02-27T06:17:06.226Z,5.57
2023-02-27T06:19:33.678Z,8.75
2023-02-27T06:22:00.697Z,12.07
2023-02-27T06:24:28.052Z,8.07
2023-02-27T06:26:55.290Z,8.95
2023-02-27T06:29:22.705Z,6.53
2023-02-27T06:31:49.759Z,4.18
2023-02-27T06:34:17.148Z,4.32
2023-02-27T06:36:44.366Z,5.78
2023-02-27T06:39:12.049Z,5.63
2023-02-27T06:41:39.532Z,7.80
2023-02-27T06:44:06.938Z,5.85
2023-02-27T06:46:33.981Z,7.55
2023-02-27T06:49:01.427Z,8.13
2023-02-27T06:51:28.501Z,9.55
2023-02-27T06:53:56.086Z,8.27
2023-02-27T06:56:23.166Z,8.00
2023-02-27T06:58:51.294Z,4.85
2023-02-27T07:01:18.447Z,8.55
2023-02-27T07:03:46.173Z,7.43
2023-02-27T07:06:13.248Z,7.90
2023-02-27T07:09:01.254Z,8.73
2023-02-27T07:11:27.724Z,7.95
2023-02-27T07:13:55.134Z,11.13
2023-02-27T07:16:22.594Z,8.75
2023-02-27T07:18:50.002Z,10.88
2023-02-27T07:21:17.063Z,9.88
2023-02-27T07:23:44.420Z,11.55
2023-02-27T07:26:11.497Z,13.18
2023-02-27T07:28:38.981Z,12.13
2023-02-27T07:31:06.156Z,9.50
2023-02-27T07:33:34.069Z,7.88
2023-02-27T07:36:01.356Z,10.50
2023-02-27T07:38:28.955Z,6.65
2023-02-27T07:40:56.107Z,13.73
2023-02-27T07:43:23.552Z,8.02
2023-02-27T07:45:51.825Z,6.00
2023-02-27T07:48:19.365Z,9.23
2023-02-27T07:50:46.768Z,13.70
2023-02-27T07:53:14.254Z,12.20
2023-02-27T07:55:41.461Z,14.23
2023-02-27T07:58:08.846Z,11.95
2023-02-27T08:00:35.931Z,9.13
2023-02-27T08:03:03.803Z,8.02
2023-02-27T08:05:31.061Z,13.32
2023-02-27T08:07:58.427Z,8.02
2023-02-27T08:10:25.836Z,7.85
2023-02-27T08:12:53.447Z,7.90
2023-02-27T08:15:20.684Z,10.43
2023-02-27T08:17:48.321Z,8.85
2023-02-27T08:20:16.737Z,28.20
2023-02-27T08:22:44.177Z,6.90
2023-02-27T08:25:11.479Z,8.55
2023-02-27T08:27:39.265Z,7.07
2023-02-27T08:30:08.263Z,6.85
2023-02-27T08:32:36.048Z,7.75
2023-02-27T08:35:03.272Z,5.90
2023-02-27T08:37:30.954Z,5.50
2023-02-27T08:39:58.105Z,7.82
2023-02-27T08:42:26.923Z,7.28
2023-02-27T08:44:54.124Z,4.75
2023-02-27T08:47:21.514Z,9.77
2023-02-27T08:49:48.551Z,8.07
2023-02-27T08:52:15.901Z,9.30
2023-02-27T08:54:43.006Z,10.02
2023-02-27T08:57:10.494Z,6.57
2023-02-27T08:59:37.590Z,10.02
2023-02-27T09:02:05.275Z,6.85
2023-02-27T09:04:32.348Z,6.00
2023-02-27T09:06:59.854Z,9.18
2023-02-27T09:09:27.520Z,9.57
2023-02-27T09:11:54.916Z,7.13
2023-02-27T09:14:24.110Z,6.10
2023-02-27T09:16:51.476Z,6.30
2023-02-27T09:19:18.618Z,8.63
2023-02-27T09:21:46.107Z,7.45
2023-02-27T09:24:19.705Z,5.93
2023-02-27T09:26:49.366Z,7.32
2023-02-27T09:29:17.620Z,8.35
2023-02-27T09:31:45.316Z,7.93
2023-02-27T09:34:12.490Z,4.63
2023-02-27T09:36:40.039Z,7.25
2023-02-27T09:39:09.716Z,6.20
2023-02-27T09:41:41.310Z,5.38
2023-02-27T09:44:47.111Z,4.90
2023-02-27T09:47:20.995Z,5.32
2023-02-27T09:49:52.552Z,3.97
2023-02-27T09:52:20.195Z,5.85
2023-02-27T09:55:04.889Z,4.40
2023-02-27T09:57:32.729Z,5.15
2023-02-27T10:00:08.684Z,3.40
2023-02-27T10:03:29.436Z,6.68
2023-02-27T10:06:13.842Z,3.60
2023-02-27T10:09:16.406Z,3.95
2023-02-27T10:12:10.621Z,3.72
2023-02-27T10:14:50.704Z,5.53
2023-02-27T10:17:54.885Z,2.65
2023-02-27T10:20:37.358Z,3.63
2023-02-27T10:23:13.083Z,2.45
2023-02-27T10:25:57.806Z,3.05
2023-02-27T10:28:38.862Z,1.33
2023-02-27T10:31:18.172Z,1.50
2023-02-27T10:33:48.978Z,2.33
2023-02-27T10:36:32.540Z,1.23
2023-02-27T10:39:12.146Z,3.38
2023-02-27T10:41:40.922Z,3.45
2023-02-27T10:44:11.544Z,2.35
2023-02-27T10:46:40.846Z,3.67
2023-02-27T10:49:20.787Z,3.25
2023-02-27T10:52:13.743Z,2.50
2023-02-27T10:54:42.793Z,1.90
2023-02-27T10:57:30.925Z,1.73
2023-02-27T11:00:01.693Z,2.38
2023-02-27T11:02:34.934Z,2.90
2023-02-27T11:05:03.185Z,3.95
2023-02-27T11:07:38.983Z,1.17
2023-02-27T11:10:15.213Z,2.33
2023-02-27T11:13:06.725Z,2.88
2023-02-27T11:15:38.745Z,1.50
2023-02-27T11:18:20.319Z,0.93
2023-02-27T11:20:50.777Z,2.17
2023-02-27T11:23:25.447Z,1.33
2023-02-27T11:26:10.356Z,2.00
2023-02-27T11:28:37.843Z,2.00
2023-02-27T11:31:15.041Z,1.65
2023-02-27T11:33:57.653Z,1.40
2023-02-27T11:36:45.911Z,2.67
2023-02-27T11:39:27.563Z,3.17
2023-02-27T11:41:58.028Z,2.88
2023-02-27T11:44:49.830Z,2.42
2023-02-27T11:49:55.932Z,0.88
2023-02-27T11:52:53.179Z,2.30
2023-02-27T11:55:27.648Z,2.58
2023-02-27T11:58:04.728Z,1.58
2023-02-27T12:00:39.713Z,1.48
2023-02-27T12:03:18.796Z,1.98
2023-02-27T12:05:50.783Z,7.10
2023-02-27T12:08:29.858Z,2.42
2023-02-27T12:11:13.758Z,2.72
2023-02-27T12:13:49.190Z,1.80
2023-02-27T12:16:33.161Z,1.92
2023-02-27T12:19:12.993Z,1.13
2023-02-27T12:24:14.555Z,1.95
2023-02-27T12:26:49.693Z,1.13
2023-02-27T12:29:33.050Z,2.58
2023-02-27T12:32:07.787Z,3.40
2023-02-27T12:34:38.014Z,0.95
2023-02-27T12:37:13.468Z,1.92
2023-02-27T12:39:43.286Z,3.50
2023-02-27T12:42:36.196Z,3.38
2023-02-27T12:45:09.345Z,4.35
2023-02-27T12:47:42.880Z,11.25
2023-02-27T12:50:15.581Z,4.80
2023-02-27T12:53:06.298Z,5.38
2023-02-27T12:55:41.389Z,2.38
2023-02-27T12:58:27.472Z,2.40
2023-02-27T13:01:01.618Z,4.05
2023-02-27T13:03:51.718Z,4.22
2023-02-27T13:06:32.565Z,1.98
2023-02-27T13:09:19.783Z,2.83
2023-02-27T13:12:02.183Z,2.05
2023-02-27T13:14:40.876Z,2.90
2023-02-27T13:17:38.172Z,6.03
2023-02-27T13:20:11.633Z,2.15
2023-02-27T13:22:48.591Z,4.35
2023-02-27T13:25:17.664Z,4.93
2023-02-27T13:28:00.331Z,5.82
2023-02-27T13:30:34.428Z,3.38
2023-02-27T13:33:26.645Z,5.57
2023-02-27T13:36:02.582Z,3.72
2023-02-27T13:38:47.981Z,2.72
2023-02-27T13:41:21.607Z,4.53
2023-02-27T13:43:59.912Z,2.70
2023-02-27T13:46:34.357Z,3.25
2023-02-27T13:49:04.621Z,7.03
2023-02-27T13:51:34.948Z,4.32
2023-02-27T13:56:48.274Z,3.20
2023-02-27T13:59:35.107Z,5.68
2023-02-27T14:02:11.574Z,3.85
2023-02-27T14:04:51.542Z,3.55
2023-02-27T14:07:32.222Z,5.00
2023-02-27T14:10:11.166Z,3.75
2023-02-27T14:12:46.369Z,4.28
2023-02-27T14:15:22.702Z,4.00
2023-02-27T14:17:59.614Z,5.50
2023-02-27T14:20:40.160Z,4.47
2023-02-27T14:23:27.050Z,8.95
2023-02-27T14:26:02.221Z,7.68
2023-02-27T14:28:48.946Z,9.02
2023-02-27T14:31:32.239Z,3.33
2023-02-27T14:34:06.234Z,4.93
2023-02-27T14:36:40.952Z,6.72
2023-02-27T14:39:34.889Z,8.30
2023-02-27T14:42:21.144Z,7.57
2023-02-27T14:44:50.978Z,2.72
2023-02-27T14:47:39.516Z,2.10
2023-02-27T14:50:22.686Z,3.67
2023-02-27T14:52:50.245Z,7.32
2023-02-27T14:55:31.535Z,3.60
2023-02-27T14:58:08.332Z,3.20
2023-02-27T15:00:38.311Z,1.63
2023-02-27T15:03:32.843Z,2.78
2023-02-27T15:06:03.894Z,3.85
2023-02-27T15:08:37.342Z,3.05
2023-02-27T15:11:06.501Z,2.90
2023-02-27T15:13:38.038Z,2.83
2023-02-27T15:16:24.062Z,4.13
2023-02-27T15:19:04.693Z,4.60
2023-02-27T15:21:38.081Z,3.13
2023-02-27T15:24:22.572Z,5.05
2023-02-27T15:27:01.009Z,4.30
2023-02-27T15:29:53.303Z,3.90
2023-02-27T15:32:34.155Z,2.20
2023-02-27T15:35:17.393Z,2.65
2023-02-27T15:37:53.442Z,3.00
2023-02-27T15:40:29.971Z,7.70
2023-02-27T15:43:00.340Z,2.80
2023-02-27T15:45:32.125Z,4.93
2023-02-27T15:48:00.597Z,7.07
2023-02-27T15:50:37.249Z,7.45
2023-02-27T15:53:08.099Z,4.47
2023-02-27T15:55:38.744Z,3.88
2023-02-27T15:58:36.901Z,12.45
2023-02-27T16:01:18.898Z,5.45
2023-02-27T16:03:49.862Z,10.70
2023-02-27T16:06:30.612Z,7.57
2023-02-27T16:09:20.738Z,6.20
2023-02-27T16:11:48.142Z,3.95
2023-02-27T16:14:43.161Z,8.63
2023-02-27T16:17:31.564Z,5.05
2023-02-27T16:20:02.437Z,2.63
2023-02-27T16:22:30.614Z,1.70
2023-02-27T16:25:18.561Z,2.03
2023-02-27T16:27:50.278Z,2.88
2023-02-27T16:30:17.882Z,4.40
2023-02-27T16:32:45.338Z,2.78
2023-02-27T16:35:21.894Z,3.45
2023-02-27T16:37:50.535Z,9.80
2023-02-27T16:40:23.908Z,11.77
2023-02-27T16:42:52.254Z,58.55
2023-02-27T16:45:27.967Z,145.30
2023-02-27T16:47:58.792Z,151.05
2023-02-27T16:50:39.435Z,122.68
2023-02-27T16:53:07.388Z,108.00
2023-02-27T16:55:39.709Z,67.68
2023-02-27T16:58:07.241Z,36.10
2023-02-27T17:00:35.025Z,41.42
2023-02-27T17:03:02.537Z,80.95
2023-02-27T17:05:30.409Z,97.05
2023-02-27T17:07:57.696Z,115.50
2023-02-27T17:10:26.310Z,322.65
2023-02-27T17:12:53.557Z,664.10
2023-02-27T17:15:21.102Z,469.08
2023-02-27T17:17:48.793Z,251.40
2023-02-27T17:20:16.566Z,370.08
2023-02-27T17:22:45.256Z,548.35
2023-02-27T17:25:13.812Z,279.13
2023-02-27T17:27:43.895Z,291.05
2023-02-27T17:30:13.300Z,204.20
2023-02-27T17:32:40.536Z,111.38
2023-02-27T17:35:08.986Z,97.32
2023-02-27T17:37:36.569Z,68.53
2023-02-27T17:40:05.998Z,398.83
2023-02-27T17:42:36.250Z,134.77
2023-02-27T17:45:06.484Z,132.45
2023-02-27T17:47:34.791Z,55.28
2023-02-27T17:50:04.284Z,37.85
2023-02-27T17:52:41.761Z,33.42
2023-02-27T17:55:10.204Z,38.95
2023-02-27T17:57:39.567Z,51.30
2023-02-27T18:02:37.254Z,69.22
2023-02-27T18:05:06.190Z,65.38
2023-02-27T18:07:34.727Z,51.17
2023-02-27T18:10:05.492Z,168.77
2023-02-27T18:12:33.120Z,242.88
2023-02-27T18:15:01.693Z,81.75
2023-02-27T18:17:29.204Z,40.08
2023-02-27T18:19:58.033Z,25.30
2023-02-27T18:22:25.829Z,25.05
2023-02-27T18:24:55.063Z,27.85
2023-02-27T18:27:22.891Z,26.20
2023-02-27T18:29:50.637Z,40.67
2023-02-27T18:32:19.138Z,34.83
2023-02-27T18:34:47.319Z,38.47
2023-02-27T18:37:14.900Z,42.20
2023-02-27T18:39:42.780Z,43.83
2023-02-27T18:42:10.248Z,41.08
2023-02-27T18:44:41.074Z,28.70
2023-02-27T18:47:09.780Z,33.00
2023-02-27T18:49:38.181Z,24.13
2023-02-27T18:52:05.974Z,19.90
2023-02-27T18:54:34.901Z,28.73
2023-02-27T18:57:02.567Z,21.35
2023-02-27T18:59:30.601Z,27.77
2023-02-27T19:01:58.300Z,47.53
2023-02-27T19:04:26.429Z,68.95
2023-02-27T19:06:54.049Z,74.30
2023-02-27T19:09:22.351Z,59.53
2023-02-27T19:11:50.113Z,44.53
2023-02-27T19:14:18.428Z,98.60
2023-02-27T19:16:46.492Z,142.70
2023-02-27T19:19:15.204Z,164.98
2023-02-27T19:21:42.929Z,190.88
2023-02-27T19:24:13.136Z,267.30
2023-02-27T19:26:41.627Z,247.98
2023-02-27T19:29:09.482Z,235.18
2023-02-27T19:31:37.145Z,189.13
2023-02-27T19:34:05.369Z,158.40
2023-02-27T19:39:06.648Z,94.05
2023-02-27T19:41:34.495Z,86.40
2023-02-27T19:44:02.655Z,72.40
2023-02-27T19:46:33.892Z,83.82
2023-02-27T19:49:05.552Z,100.70
2023-02-27T19:51:34.014Z,95.80
2023-02-27T19:54:01.908Z,104.85
2023-02-27T19:56:30.779Z,102.93
2023-02-27T19:59:00.975Z,128.23
2023-02-27T20:01:32.639Z,260.55
2023-02-27T20:04:02.090Z,155.60
2023-02-27T20:06:31.585Z,105.03
2023-02-27T20:09:00.119Z,80.53
2023-02-27T20:11:31.964Z,68.28
2023-02-27T20:14:00.742Z,266.60
2023-02-27T20:16:30.872Z,336.70
2023-02-27T20:19:00.185Z,211.68
2023-02-27T20:21:28.943Z,273.83
2023-02-27T20:23:58.546Z,345.73
2023-02-27T20:26:35.344Z,253.60
2023-02-27T20:29:18.772Z,293.60
2023-02-27T20:31:48.630Z,296.58
2023-02-27T20:34:21.984Z,353.00
2023-02-27T20:36:53.782Z,270.08
2023-02-27T20:39:22.030Z,227.27
2023-02-27T20:41:49.692Z,219.10
2023-02-27T20:44:17.618Z,173.60
2023-02-27T20:46:45.170Z,212.80
2023-02-27T20:49:17.565Z,259.05
2023-02-27T20:51:45.818Z,438.55
2023-02-27T20:54:16.647Z,264.33
2023-02-27T20:56:44.348Z,245.55
2023-02-27T20:59:14.306Z,198.70
2023-02-27T21:04:10.373Z,304.88
2023-02-27T21:06:37.837Z,263.60
2023-02-27T21:09:06.662Z,306.52
2023-02-27T21:11:34.364Z,429.70
2023-02-27T21:14:09.233Z,101.00
2023-02-27T21:16:38.236Z,107.22
2023-02-27T21:19:07.407Z,158.55
2023-02-27T21:21:36.006Z,199.82
2023-02-27T21:24:04.090Z,176.10
2023-02-27T21:26:35.466Z,176.68
2023-02-27T21:29:06.965Z,188.10
2023-02-27T21:31:35.657Z,190.13
2023-02-27T21:34:05.980Z,188.85
2023-02-27T21:36:36.628Z,152.20
2023-02-27T21:39:07.193Z,122.10
2023-02-27T21:41:35.434Z,88.10
2023-02-27T21:44:05.832Z,90.20
2023-02-27T21:46:34.528Z,72.45
2023-02-27T21:49:03.969Z,103.57
2023-02-27T21:51:40.473Z,208.77
2023-02-27T21:54:11.918Z,272.10
2023-02-27T21:56:40.355Z,271.75
2023-02-27T21:59:08.134Z,287.25
2023-02-27T22:01:37.820Z,228.23
2023-02-27T22:04:06.962Z,205.15
2023-02-27T22:06:35.640Z,189.90
2023-02-27T22:09:05.920Z,159.35
2023-02-27T22:11:34.412Z,121.85
2023-02-27T22:14:05.613Z,82.55
2023-02-27T22:16:33.228Z,94.80
2023-02-27T22:19:06.209Z,109.22
2023-02-27T22:21:34.036Z,115.22
2023-02-27T22:24:01.955Z,121.43
2023-02-27T22:26:29.344Z,141.60
2023-02-27T22:28:57.646Z,180.77
2023-02-27T22:31:37.554Z,122.35
2023-02-27T22:34:12.384Z,89.97
2023-02-27T22:36:41.817Z,80.65
2023-02-27T22:41:40.116Z,80.60
2023-02-27T22:44:09.556Z,92.05
2023-02-27T22:46:39.895Z,92.20
2023-02-27T22:49:15.699Z,110.65
2023-02-27T22:51:42.873Z,116.28
2023-02-27T22:54:12.712Z,116.10
2023-02-27T22:56:40.046Z,129.57
2023-02-27T22:59:08.036Z,177.38
2023-02-27T23:01:37.365Z,205.90
2023-02-27T23:06:37.213Z,101.18
2023-02-27T23:09:07.247Z,114.78
2023-02-27T23:14:01.916Z,121.05
2023-02-27T23:16:29.088Z,116.03
2023-02-27T23:18:59.369Z,122.05
2023-02-27T23:21:32.187Z,120.90
2023-02-27T23:24:00.311Z,122.57
2023-02-27T23:26:28.483Z,114.78
2023-02-27T23:28:56.957Z,124.38
2023-02-27T23:31:24.537Z,112.70
2023-02-27T23:33:52.513Z,107.00
2023-02-27T23:36:19.760Z,110.03
2023-02-27T23:38:47.423Z,88.10
2023-02-27T23:41:17.434Z,91.03
2023-02-27T23:43:45.010Z,64.97
2023-02-27T23:46:15.289Z,62.45
2023-02-27T23:48:43.295Z,46.33
2023-02-27T23:51:11.535Z,41.10
2023-02-27T23:53:40.928Z,58.58
2023-02-27T23:56:22.444Z,84.40
2023-02-27T23:59:04.202Z,69.80
